KREO/REO METAR and TAF weather

Enter ICAO airport designator
Station Type Date Time Source
KREO METAR 2019/06/27 03:52 UTC NOAA

KREO 270352Z AUTO 27013KT 21/M02 A2985 RMK AO1 SLP071 T02061017


Station Type Date Time Source
KREO Decoded METAR 2019/06/27 03:52 UTC NOAA

ROME, OR, United States (KREO) 42-35N 117-52W 1235M
Jun 26, 2019 - 11:52 PM EDT / 2019.06.27 0352 UTC
Wind: from the W (270 degrees) at 15 MPH (13 KT):0
Temperature: 69.1 F (20.6 C)
Dew Point: 28.9 F (-1.7 C)
Relative Humidity: 22%
Pressure (altimeter): 29.85 in. Hg (1010 hPa)
ob: KREO 270352Z AUTO 27013KT 21/M02 A2985 RMK AO1 SLP071 T02061017
cycle: 4

Station Type Date Time Source
KREO TAF UTC NOAA

Error!

Example: see airport list